Time;durP1;ratioP1;P1;durP2;ratioP2;P2;SDS_P1;SDS_P2;PMS_P1;PMS_P2;Temp;Humidity;BMP_temperature;BMP_pressure;BME280_temperature;BME280_humidity;BME280_pressure;Samples;Min_cycle;Max_cycle;Signal;HPM_P1;HPM_P2
2021/12/17 00:01:01;;;;;;;80.57;28.85;;;;;;;;;;5053218;28;20050;-32
2021/12/17 00:03:42;;;;;;;85.90;28.55;;;;;;;;;;5071417;28;20076;-35
2021/12/17 00:08:36;;;;;;;73.82;26.80;;;;;;;;;;5071942;28;20041;-31
2021/12/17 00:11:02;;;;;;;68.40;27.40;;;;;;;;;;5071587;28;20139;-32
2021/12/17 00:13:29;;;;;;;75.72;26.77;;;;;;;;;;5071180;28;20056;-34
2021/12/17 00:15:55;;;;;;;64.93;24.42;;;;;;;;;;5075814;28;20028;-32
2021/12/17 00:18:36;;;;;;;68.15;25.52;;;;;;;;;;5054379;28;20555;-31
2021/12/17 00:48:38;;;;;;;63.20;22.08;;;;;;;;;;5091148;28;20040;-34
2021/12/17 00:53:47;;;;;;;48.90;19.87;;;;;;;;;;5089299;28;20087;-34
2021/12/17 00:56:13;;;;;;;53.22;20.48;;;;;;;;;;5089587;28;20032;-36
2021/12/17 00:58:40;;;;;;;47.42;17.55;;;;;;;;;;5090118;28;20398;-34
2021/12/17 01:01:06;;;;;;;46.58;17.75;;;;;;;;;;5090045;28;20068;-34
2021/12/17 01:03:39;;;;;;;50.75;18.02;;;;;;;;;;5089403;28;20504;-36
2021/12/17 01:06:05;;;;;;;59.58;20.10;;;;;;;;;;5089729;28;20040;-33
2021/12/17 01:08:31;;;;;;;46.03;18.17;;;;;;;;;;5071441;28;20044;-33
2021/12/17 01:10:58;;;;;;;57.97;21.30;;;;;;;;;;5089595;28;20384;-33
2021/12/17 01:13:24;;;;;;;49.88;17.77;;;;;;;;;;5089310;28;20067;-35
2021/12/17 01:15:51;;;;;;;45.80;16.88;;;;;;;;;;5089727;28;20098;-36
2021/12/17 01:18:20;;;;;;;48.22;17.67;;;;;;;;;;5071411;28;20447;-35
2021/12/17 01:36:41;;;;;;;50.13;15.88;;;;;;;;;;5089411;28;20500;-37
2021/12/17 01:44:16;;;;;;;48.83;16.08;;;;;;;;;;5088531;28;20051;-35
2021/12/17 01:46:48;;;;;;;41.20;15.13;;;;;;;;;;5089070;28;20046;-33
2021/12/17 01:59:27;;;;;;;38.72;12.98;;;;;;;;;;5061197;28;20463;-34
2021/12/17 02:02:02;;;;;;;44.33;15.82;;;;;;;;;;5081329;28;20485;-35
2021/12/17 02:04:29;;;;;;;33.97;14.55;;;;;;;;;;5088119;28;20047;-34
2021/12/17 02:06:55;;;;;;;46.05;14.85;;;;;;;;;;5088404;28;20503;-34
2021/12/17 02:12:19;;;;;;;33.47;15.32;;;;;;;;;;5089411;28;20051;-34
2021/12/17 02:28:55;;;;;;;26.80;11.65;;;;;;;;;;5072965;28;20441;-30
2021/12/17 02:31:29;;;;;;;28.42;12.02;;;;;;;;;;5072289;28;20507;-31
2021/12/17 02:33:56;;;;;;;27.15;11.90;;;;;;;;;;5071916;28;20126;-30
2021/12/17 02:36:26;;;;;;;26.75;12.23;;;;;;;;;;5054303;28;20511;-30
2021/12/17 02:38:57;;;;;;;27.45;11.35;;;;;;;;;;5072421;28;20044;-29
2021/12/17 02:46:58;;;;;;;32.50;12.57;;;;;;;;;;5072472;28;20052;-30
2021/12/17 02:49:24;;;;;;;29.10;12.55;;;;;;;;;;5072537;28;20045;-30
2021/12/17 02:51:50;;;;;;;25.63;11.77;;;;;;;;;;5072167;28;20386;-30
2021/12/17 02:54:16;;;;;;;29.60;11.90;;;;;;;;;;5071942;28;20051;-29
2021/12/17 02:56:42;;;;;;;25.70;11.82;;;;;;;;;;5072651;28;20044;-30
2021/12/17 02:59:13;;;;;;;25.65;11.25;;;;;;;;;;5072617;28;20140;-30
2021/12/17 03:01:41;;;;;;;25.77;11.35;;;;;;;;;;5054672;28;20059;-30
2021/12/17 03:04:07;;;;;;;26.55;11.73;;;;;;;;;;5072121;28;20036;-31
2021/12/17 03:06:34;;;;;;;26.75;10.90;;;;;;;;;;5072032;28;20429;-30
2021/12/17 03:09:04;;;;;;;26.05;10.73;;;;;;;;;;5072374;28;20089;-31
2021/12/17 03:11:30;;;;;;;29.35;12.50;;;;;;;;;;5072382;28;20044;-30
2021/12/17 03:13:56;;;;;;;32.03;12.45;;;;;;;;;;5071860;28;20448;-30
2021/12/17 03:16:38;;;;;;;29.20;10.68;;;;;;;;;;5054381;28;20046;-32
2021/12/17 03:19:12;;;;;;;27.27;10.57;;;;;;;;;;5072321;28;20500;-31
2021/12/17 03:24:23;;;;;;;24.77;11.32;;;;;;;;;;5071258;28;20048;-31
2021/12/17 03:26:50;;;;;;;31.50;11.48;;;;;;;;;;5072036;28;20072;-30
2021/12/17 03:29:16;;;;;;;25.60;10.52;;;;;;;;;;5053722;28;20048;-31
2021/12/17 03:31:42;;;;;;;30.77;11.68;;;;;;;;;;5071739;28;20032;-30
2021/12/17 03:34:20;;;;;;;25.52;10.82;;;;;;;;;;5070214;28;20060;-30
2021/12/17 03:36:53;;;;;;;25.48;11.25;;;;;;;;;;5071212;28;20040;-30
2021/12/17 03:39:19;;;;;;;;;;;;;;;;;;5072458;28;20409;-31
2021/12/17 03:41:51;;;;;;;26.75;11.60;;;;;;;;;;5071474;28;19923;-31
2021/12/17 03:44:18;;;;;;;25.65;10.15;;;;;;;;;;5071091;28;20543;-31
2021/12/17 03:46:46;;;;;;;25.48;11.32;;;;;;;;;;5071214;28;20044;-30
2021/12/17 03:49:12;;;;;;;26.08;10.93;;;;;;;;;;5071242;28;20127;-31
2021/12/17 03:51:49;;;;;;;26.55;10.75;;;;;;;;;;5071256;28;20029;-30
2021/12/17 03:54:18;;;;;;;25.63;11.27;;;;;;;;;;5070962;28;20045;-30
2021/12/17 03:56:44;;;;;;;28.45;10.95;;;;;;;;;;5071271;28;20047;-30
2021/12/17 03:59:10;;;;;;;30.38;11.93;;;;;;;;;;5071143;28;20498;-30
2021/12/17 04:01:40;;;;;;;24.88;11.05;;;;;;;;;;5070922;28;20040;-30
2021/12/17 04:04:06;;;;;;;30.27;11.60;;;;;;;;;;5070683;28;20040;-30
2021/12/17 04:06:33;;;;;;;26.73;12.15;;;;;;;;;;5070891;28;20048;-31
2021/12/17 04:08:59;;;;;;;31.40;12.63;;;;;;;;;;5071202;28;20390;-31
2021/12/17 04:11:25;;;;;;;30.48;11.77;;;;;;;;;;5070913;28;20033;-31
2021/12/17 04:13:54;;;;;;;31.02;11.35;;;;;;;;;;5070271;28;20123;-30
2021/12/17 04:16:27;;;;;;;29.88;12.50;;;;;;;;;;5070517;28;20114;-30
2021/12/17 04:18:54;;;;;;;31.30;12.00;;;;;;;;;;5071225;28;20528;-31
2021/12/17 04:21:21;;;;;;;41.38;14.65;;;;;;;;;;5070588;28;20047;-31
2021/12/17 04:23:48;;;;;;;29.83;12.15;;;;;;;;;;5070127;28;20040;-31
2021/12/17 04:26:18;;;;;;;30.25;12.25;;;;;;;;;;5070968;28;20435;-32
2021/12/17 04:28:47;;;;;;;28.88;13.18;;;;;;;;;;5070633;28;20046;-31
2021/12/17 04:31:14;;;;;;;32.95;12.77;;;;;;;;;;5071478;28;20040;-29
2021/12/17 04:33:41;;;;;;;31.02;13.00;;;;;;;;;;5079869;22;20051;-31
2021/12/17 04:36:09;;;;;;;29.70;12.73;;;;;;;;;;5053370;28;20044;-31
2021/12/17 04:38:35;;;;;;;29.42;13.05;;;;;;;;;;5071281;28;20239;-31
2021/12/17 04:41:36;;;;;;;33.00;13.07;;;;;;;;;;5070581;28;20056;-31
2021/12/17 04:57:47;;;;;;;28.27;12.27;;;;;;;;;;5090005;28;19978;-32
2021/12/17 05:00:16;;;;;;;33.15;11.88;;;;;;;;;;5090134;28;20051;-31
2021/12/17 05:02:46;;;;;;;29.15;12.35;;;;;;;;;;5072834;28;20040;-34
2021/12/17 05:05:14;;;;;;;31.08;13.45;;;;;;;;;;5090718;28;20078;-30
2021/12/17 05:07:44;;;;;;;32.65;13.38;;;;;;;;;;5090809;28;20050;-33
2021/12/17 05:20:47;;;;;;;35.88;13.02;;;;;;;;;;5066154;28;20072;-32
2021/12/17 05:23:14;;;;;;;34.00;14.13;;;;;;;;;;5051578;28;20055;-33
2021/12/17 05:25:39;;;;;;;33.75;13.68;;;;;;;;;;5050327;28;20055;-32
2021/12/17 05:28:06;;;;;;;29.65;12.50;;;;;;;;;;5049672;28;20421;-33
2021/12/17 05:30:33;;;;;;;31.75;13.10;;;;;;;;;;5054191;28;20436;-34
2021/12/17 05:33:01;;;;;;;38.35;13.05;;;;;;;;;;5054401;28;20493;-34
2021/12/17 05:35:27;;;;;;;38.28;14.25;;;;;;;;;;5058361;28;20055;-32
2021/12/17 05:37:54;;;;;;;30.45;11.60;;;;;;;;;;5052003;28;20036;-33
2021/12/17 05:40:20;;;;;;;37.53;15.50;;;;;;;;;;5063452;28;20505;-32
2021/12/17 05:42:50;;;;;;;32.08;14.23;;;;;;;;;;5067224;28;20044;-33
2021/12/17 05:45:22;;;;;;;51.80;14.48;;;;;;;;;;5069877;28;20049;-33
2021/12/17 05:47:49;;;;;;;34.30;13.68;;;;;;;;;;5069024;28;20559;-33
2021/12/17 05:50:15;;;;;;;28.00;12.73;;;;;;;;;;5068060;28;20037;-33
2021/12/17 05:52:41;;;;;;;27.55;12.02;;;;;;;;;;5046554;28;20413;-33
2021/12/17 05:55:08;;;;;;;27.35;11.48;;;;;;;;;;5083404;28;20467;-32
2021/12/17 05:57:34;;;;;;;33.47;13.18;;;;;;;;;;5088574;28;20401;-32
2021/12/17 06:00:00;;;;;;;25.35;10.95;;;;;;;;;;5089242;28;20036;-35
2021/12/17 06:02:26;;;;;;;29.25;12.98;;;;;;;;;;5064898;28;20036;-35
2021/12/17 06:04:51;;;;;;;28.50;12.13;;;;;;;;;;5081452;28;20062;-34
2021/12/17 06:07:24;;;;;;;30.90;12.50;;;;;;;;;;5089501;28;20040;-32
2021/12/17 06:09:52;;;;;;;29.67;12.88;;;;;;;;;;5089350;28;20048;-33
2021/12/17 06:12:18;;;;;;;43.40;14.80;;;;;;;;;;5089186;28;20115;-32
2021/12/17 06:14:44;;;;;;;52.83;16.77;;;;;;;;;;5070401;28;20174;-34
2021/12/17 06:17:10;;;;;;;29.52;12.80;;;;;;;;;;5074683;28;20047;-32
2021/12/17 06:19:36;;;;;;;28.85;12.85;;;;;;;;;;5089131;28;20369;-34
2021/12/17 06:22:02;;;;;;;49.65;15.82;;;;;;;;;;5089209;28;20067;-33
2021/12/17 06:24:28;;;;;;;34.72;13.05;;;;;;;;;;5088553;28;20037;-33
2021/12/17 06:26:54;;;;;;;45.30;14.23;;;;;;;;;;5071116;28;20040;-32
2021/12/17 06:29:20;;;;;;;30.90;13.35;;;;;;;;;;5088935;28;20036;-33
2021/12/17 06:31:46;;;;;;;32.17;14.05;;;;;;;;;;5070429;28;20063;-33
2021/12/17 06:34:12;;;;;;;32.03;12.48;;;;;;;;;;5088884;28;20135;-33
2021/12/17 06:36:38;;;;;;;36.80;13.80;;;;;;;;;;5071003;28;20044;-33
2021/12/17 06:39:05;;;;;;;31.67;11.93;;;;;;;;;;5089300;28;20044;-32
2021/12/17 06:41:31;;;;;;;30.63;13.32;;;;;;;;;;5089080;28;20349;-33
2021/12/17 06:43:58;;;;;;;33.95;13.68;;;;;;;;;;5078105;28;20120;-33
2021/12/17 06:46:49;;;;;;;26.08;12.10;;;;;;;;;;5070613;28;20071;-35
2021/12/17 06:49:27;;;;;;;38.00;14.27;;;;;;;;;;5069841;28;20135;-34
2021/12/17 06:54:58;;;;;;;55.45;26.63;;;;;;;;;;5089704;28;20044;-31
2021/12/17 07:11:16;;;;;;;28.50;13.57;;;;;;;;;;5075287;28;20382;-31
2021/12/17 07:34:44;;;;;;;30.42;12.07;;;;;;;;;;5072166;28;20068;-31
2021/12/17 07:39:39;;;;;;;33.08;12.65;;;;;;;;;;5071051;28;20124;-31
2021/12/17 07:42:05;;;;;;;27.77;12.05;;;;;;;;;;5055517;28;20516;-32
2021/12/17 07:44:31;;;;;;;29.35;11.05;;;;;;;;;;5072619;28;20116;-31
2021/12/17 07:46:57;;;;;;;30.52;12.63;;;;;;;;;;5073422;28;20075;-31
2021/12/17 07:49:24;;;;;;;26.00;11.52;;;;;;;;;;5073472;28;20036;-31
2021/12/17 07:51:50;;;;;;;36.72;14.68;;;;;;;;;;5055563;28;20044;-33
2021/12/17 07:54:16;;;;;;;33.63;12.68;;;;;;;;;;5072773;28;20040;-32
2021/12/17 07:56:42;;;;;;;29.50;12.18;;;;;;;;;;5072971;28;20063;-32
2021/12/17 07:59:10;;;;;;;30.52;12.90;;;;;;;;;;5073079;28;20082;-33
2021/12/17 08:01:37;;;;;;;31.48;13.25;;;;;;;;;;5055282;28;20063;-32
2021/12/17 08:04:04;;;;;;;34.92;15.68;;;;;;;;;;5054824;28;20036;-32
2021/12/17 08:06:30;;;;;;;30.75;14.68;;;;;;;;;;5073551;28;20118;-31
2021/12/17 08:08:56;;;;;;;28.70;13.77;;;;;;;;;;5072983;28;20478;-31
2021/12/17 08:11:22;;;;;;;35.17;13.75;;;;;;;;;;5055053;28;20127;-30
2021/12/17 08:13:49;;;;;;;33.42;13.77;;;;;;;;;;5072821;28;20055;-30
2021/12/17 08:16:32;;;;;;;29.60;12.98;;;;;;;;;;5054969;28;20075;-31
2021/12/17 08:32:05;;;;;;;31.42;13.10;;;;;;;;;;5072516;28;20098;-35
2021/12/17 08:34:31;;;;;;;30.27;12.73;;;;;;;;;;5072416;28;20033;-35
2021/12/17 08:36:57;;;;;;;26.92;12.57;;;;;;;;;;5072398;28;20410;-34
2021/12/17 08:39:25;;;;;;;31.85;12.38;;;;;;;;;;5072208;28;20074;-35
2021/12/17 08:41:53;;;;;;;29.52;13.50;;;;;;;;;;5072456;28;20412;-34
2021/12/17 08:44:19;;;;;;;28.00;12.88;;;;;;;;;;5071511;28;20041;-37
2021/12/17 08:46:46;;;;;;;27.33;13.73;;;;;;;;;;5071329;28;20076;-35
2021/12/17 08:49:12;;;;;;;29.88;13.27;;;;;;;;;;5053150;28;20241;-35
2021/12/17 08:51:38;;;;;;;25.45;13.32;;;;;;;;;;5076848;28;20388;-34
2021/12/17 08:54:05;;;;;;;29.85;12.95;;;;;;;;;;5092099;28;20393;-34
2021/12/17 08:56:32;;;;;;;25.98;12.25;;;;;;;;;;5088591;28;20047;-35
2021/12/17 08:59:00;;;;;;;30.42;13.35;;;;;;;;;;5077853;28;20082;-34
2021/12/17 09:01:26;;;;;;;30.75;13.27;;;;;;;;;;5065810;28;20543;-33
2021/12/17 09:03:52;;;;;;;30.80;13.90;;;;;;;;;;5065638;28;20044;-33
2021/12/17 09:06:22;;;;;;;25.75;12.82;;;;;;;;;;5081739;28;20041;-33
2021/12/17 09:08:49;;;;;;;24.15;11.93;;;;;;;;;;5080752;28;20040;-36
2021/12/17 09:11:15;;;;;;;29.27;12.50;;;;;;;;;;5071722;28;20044;-35
2021/12/17 09:13:41;;;;;;;26.38;12.50;;;;;;;;;;5070969;28;20109;-35
2021/12/17 09:16:07;;;;;;;26.13;11.70;;;;;;;;;;5072610;28;20489;-33
2021/12/17 09:18:34;;;;;;;23.00;12.30;;;;;;;;;;5080250;28;20409;-32
2021/12/17 09:21:00;;;;;;;23.30;12.25;;;;;;;;;;5068474;28;20048;-32
2021/12/17 09:23:26;;;;;;;20.23;11.68;;;;;;;;;;5075221;28;20028;-34
2021/12/17 09:25:52;;;;;;;22.02;11.27;;;;;;;;;;5053802;28;20039;-37
2021/12/17 09:28:18;;;;;;;26.77;12.68;;;;;;;;;;5080306;28;20122;-34
2021/12/17 09:30:44;;;;;;;26.85;12.10;;;;;;;;;;5074103;28;20036;-34
2021/12/17 09:33:10;;;;;;;27.35;12.98;;;;;;;;;;5078026;28;20044;-33
2021/12/17 09:35:36;;;;;;;26.83;12.68;;;;;;;;;;5070691;28;20494;-33
2021/12/17 09:38:03;;;;;;;28.20;12.88;;;;;;;;;;5080066;28;20059;-31
2021/12/17 09:40:29;;;;;;;26.02;12.13;;;;;;;;;;5076160;28;20119;-32
2021/12/17 09:42:55;;;;;;;24.13;12.57;;;;;;;;;;5072510;28;20036;-34
2021/12/17 09:45:21;;;;;;;26.67;13.43;;;;;;;;;;5072342;28;20040;-34
2021/12/17 09:47:48;;;;;;;23.67;12.93;;;;;;;;;;5072054;28;20654;-32
2021/12/17 09:50:15;;;;;;;22.05;12.27;;;;;;;;;;5054817;28;20044;-33
2021/12/17 09:52:41;;;;;;;23.30;12.18;;;;;;;;;;5070227;28;20055;-32
2021/12/17 09:55:08;;;;;;;21.75;10.88;;;;;;;;;;5078120;28;20040;-32
2021/12/17 09:57:37;;;;;;;20.27;11.57;;;;;;;;;;5071772;28;20047;-33
2021/12/17 10:00:07;;;;;;;21.70;12.93;;;;;;;;;;5071857;28;20520;-32
2021/12/17 10:02:33;;;;;;;25.63;12.52;;;;;;;;;;5076439;28;20059;-32
2021/12/17 10:05:00;;;;;;;26.38;12.25;;;;;;;;;;5070474;28;20489;-34
2021/12/17 10:07:27;;;;;;;20.10;11.57;;;;;;;;;;5075663;28;20081;-32
2021/12/17 10:09:55;;;;;;;21.80;11.50;;;;;;;;;;5053677;28;20036;-32
2021/12/17 10:12:25;;;;;;;20.67;12.23;;;;;;;;;;5059771;28;20089;-33
2021/12/17 10:14:59;;;;;;;22.00;11.52;;;;;;;;;;5069904;28;20035;-32
2021/12/17 10:17:25;;;;;;;23.63;12.27;;;;;;;;;;5065664;28;20039;-32
2021/12/17 10:19:53;;;;;;;23.45;11.38;;;;;;;;;;5074681;28;20033;-33
2021/12/17 10:22:20;;;;;;;22.77;12.75;;;;;;;;;;5063220;28;20037;-34
2021/12/17 10:24:58;;;;;;;24.98;13.55;;;;;;;;;;5055352;28;20068;-31
2021/12/17 10:27:29;;;;;;;21.13;12.80;;;;;;;;;;5067332;28;20040;-35
2021/12/17 10:32:25;;;;;;;18.85;10.82;;;;;;;;;;5050792;28;20033;-31
2021/12/17 10:39:57;;;;;;;20.65;11.88;;;;;;;;;;5048631;28;20048;-32
2021/12/17 10:42:30;;;;;;;18.10;11.80;;;;;;;;;;5048526;28;20038;-34
2021/12/17 10:45:03;;;;;;;20.40;11.32;;;;;;;;;;5047024;28;20041;-33
2021/12/17 10:47:33;;;;;;;16.95;11.02;;;;;;;;;;5035522;28;20469;-32
2021/12/17 10:50:02;;;;;;;19.88;11.75;;;;;;;;;;5034178;28;20152;-33
2021/12/17 10:52:40;;;;;;;18.23;10.57;;;;;;;;;;5032911;28;20041;-33
2021/12/17 10:55:14;;;;;;;20.20;10.88;;;;;;;;;;5032406;28;20044;-34
2021/12/17 10:57:40;;;;;;;22.48;12.52;;;;;;;;;;5034570;28;20048;-33
2021/12/17 11:00:07;;;;;;;21.05;12.38;;;;;;;;;;5033635;28;20172;-34
2021/12/17 11:02:33;;;;;;;22.98;12.65;;;;;;;;;;5034867;28;20076;-34
2021/12/17 11:05:10;;;;;;;24.90;13.50;;;;;;;;;;5034271;28;20049;-32
2021/12/17 11:07:38;;;;;;;24.25;12.98;;;;;;;;;;5035093;28;20045;-32
2021/12/17 11:10:04;;;;;;;18.92;12.15;;;;;;;;;;5035441;28;20119;-33
2021/12/17 11:12:35;;;;;;;23.48;12.95;;;;;;;;;;5035846;28;20107;-31
2021/12/17 11:17:29;;;;;;;18.33;11.48;;;;;;;;;;5053058;28;20128;-35
2021/12/17 11:19:56;;;;;;;19.05;11.45;;;;;;;;;;5054656;28;20073;-32
2021/12/17 11:22:48;;;;;;;17.42;10.70;;;;;;;;;;5054322;28;20029;-30
2021/12/17 11:25:14;;;;;;;17.67;10.65;;;;;;;;;;5038999;28;20774;-29
2021/12/17 11:27:41;;;;;;;19.50;10.88;;;;;;;;;;5054982;28;20041;-31
2021/12/17 11:30:12;;;;;;;18.90;12.68;;;;;;;;;;5054647;28;20043;-30
2021/12/17 11:32:39;;;;;;;20.05;11.85;;;;;;;;;;5054867;28;20045;-30
2021/12/17 11:35:05;;;;;;;16.50;10.93;;;;;;;;;;5054306;28;20120;-29
2021/12/17 11:37:31;;;;;;;21.00;12.38;;;;;;;;;;5054726;28;20033;-30
2021/12/17 11:40:12;;;;;;;16.20;11.30;;;;;;;;;;5036809;28;20049;-31
2021/12/17 11:42:54;;;;;;;21.38;11.80;;;;;;;;;;5054002;28;20037;-31
2021/12/17 11:45:24;;;;;;;16.70;10.30;;;;;;;;;;5054484;28;20048;-31
2021/12/17 11:47:51;;;;;;;17.63;10.85;;;;;;;;;;5054200;28;20058;-34
2021/12/17 11:50:27;;;;;;;15.93;10.30;;;;;;;;;;5032496;28;20115;-34
2021/12/17 11:52:56;;;;;;;17.38;10.23;;;;;;;;;;5047759;28;20045;-36
2021/12/17 11:55:24;;;;;;;15.50;9.98;;;;;;;;;;5049210;28;20036;-36
2021/12/17 11:57:51;;;;;;;16.60;10.40;;;;;;;;;;5047728;28;20042;-35
2021/12/17 12:00:22;;;;;;;19.20;10.25;;;;;;;;;;5049051;28;20072;-35
2021/12/17 12:02:53;;;;;;;18.80;11.23;;;;;;;;;;5050058;28;20111;-35
2021/12/17 12:05:36;;;;;;;15.75;10.35;;;;;;;;;;5048175;28;20044;-36
2021/12/17 12:08:20;;;;;;;15.70;10.05;;;;;;;;;;5050611;28;20576;-37
2021/12/17 12:11:02;;;;;;;16.42;10.50;;;;;;;;;;5050747;28;20048;-36
2021/12/17 12:13:35;;;;;;;22.85;12.35;;;;;;;;;;5050048;28;20098;-32
2021/12/17 12:16:02;;;;;;;24.45;12.77;;;;;;;;;;5051757;28;20036;-36
2021/12/17 12:18:38;;;;;;;25.38;13.55;;;;;;;;;;5053360;28;20052;-35
2021/12/17 12:21:04;;;;;;;22.73;13.57;;;;;;;;;;5032547;28;20052;-37
2021/12/17 12:23:31;;;;;;;23.58;13.05;;;;;;;;;;5051370;28;20111;-35
2021/12/17 12:26:08;;;;;;;22.63;13.43;;;;;;;;;;5052539;28;20041;-34
2021/12/17 12:28:50;;;;;;;22.88;14.18;;;;;;;;;;5051744;28;20041;-34
2021/12/17 12:31:26;;;;;;;24.88;14.73;;;;;;;;;;5050971;28;20166;-34
2021/12/17 12:34:13;;;;;;;18.98;12.00;;;;;;;;;;5051727;28;20041;-34
2021/12/17 12:36:53;;;;;;;21.27;13.13;;;;;;;;;;5048571;28;20033;-36
2021/12/17 12:39:38;;;;;;;17.30;11.48;;;;;;;;;;5052220;28;20386;-35
2021/12/17 12:42:19;;;;;;;17.60;10.82;;;;;;;;;;5033164;28;20059;-36
2021/12/17 12:44:45;;;;;;;20.85;11.73;;;;;;;;;;5049935;28;20506;-35
2021/12/17 12:47:13;;;;;;;16.30;10.63;;;;;;;;;;5051366;28;20052;-36
2021/12/17 12:49:45;;;;;;;16.67;11.05;;;;;;;;;;5031598;28;20379;-33
2021/12/17 12:52:15;;;;;;;17.38;10.63;;;;;;;;;;5051291;28;20467;-38
2021/12/17 12:54:47;;;;;;;17.90;10.57;;;;;;;;;;5050670;28;20259;-34
2021/12/17 12:57:13;;;;;;;11.93;8.73;;;;;;;;;;5031699;28;20144;-35
2021/12/17 12:59:39;;;;;;;14.73;9.48;;;;;;;;;;5050760;28;20121;-36
2021/12/17 13:02:05;;;;;;;13.23;8.68;;;;;;;;;;5049221;28;20472;-33
2021/12/17 13:04:31;;;;;;;13.10;8.82;;;;;;;;;;5049766;28;20040;-36
2021/12/17 13:06:57;;;;;;;14.10;8.57;;;;;;;;;;5047535;28;20044;-36
2021/12/17 13:09:29;;;;;;;11.43;8.10;;;;;;;;;;5050959;28;20041;-35
2021/12/17 13:11:56;;;;;;;11.77;9.18;;;;;;;;;;5051851;28;20037;-32
2021/12/17 13:14:24;;;;;;;14.27;8.18;;;;;;;;;;5046669;28;20489;-35
2021/12/17 13:17:16;;;;;;;14.20;8.88;;;;;;;;;;5047786;28;20033;-36
2021/12/17 13:22:53;;;;;;;13.73;9.02;;;;;;;;;;5046326;28;20521;-34
2021/12/17 13:25:31;;;;;;;14.68;9.15;;;;;;;;;;5051659;28;20055;-37
2021/12/17 13:27:57;;;;;;;13.15;8.95;;;;;;;;;;5049005;28;20053;-39
2021/12/17 13:30:25;;;;;;;17.48;10.00;;;;;;;;;;5048831;28;20033;-34
2021/12/17 13:32:54;;;;;;;12.75;8.73;;;;;;;;;;5033628;28;20402;-33
2021/12/17 13:35:22;;;;;;;14.25;9.73;;;;;;;;;;5051942;28;20375;-34
2021/12/17 13:37:52;;;;;;;14.38;10.27;;;;;;;;;;5052251;28;20055;-34
2021/12/17 13:40:23;;;;;;;16.90;10.73;;;;;;;;;;5051092;28;20040;-34
2021/12/17 13:42:49;;;;;;;18.02;12.32;;;;;;;;;;5050791;28;20041;-35
2021/12/17 13:45:22;;;;;;;14.20;9.95;;;;;;;;;;5050370;28;20044;-36
2021/12/17 13:48:11;;;;;;;11.77;8.10;;;;;;;;;;5046626;28;20037;-36
2021/12/17 13:50:41;;;;;;;12.15;8.10;;;;;;;;;;5049437;28;20091;-35
2021/12/17 13:53:14;;;;;;;11.55;7.68;;;;;;;;;;5049815;28;20080;-34
2021/12/17 13:55:44;;;;;;;12.68;7.43;;;;;;;;;;5046396;28;20120;-36
2021/12/17 13:58:12;;;;;;;14.68;9.43;;;;;;;;;;5050893;28;20445;-36
2021/12/17 14:00:42;;;;;;;10.77;8.90;;;;;;;;;;5031691;28;20132;-38
2021/12/17 14:03:15;;;;;;;11.98;7.90;;;;;;;;;;5047647;28;20394;-35
2021/12/17 14:05:45;;;;;;;12.05;7.40;;;;;;;;;;5048543;28;20052;-34
2021/12/17 14:08:20;;;;;;;10.77;7.35;;;;;;;;;;5050666;28;20087;-36
2021/12/17 14:10:48;;;;;;;9.77;7.80;;;;;;;;;;5045977;28;20090;-34
2021/12/17 14:13:17;;;;;;;12.35;8.55;;;;;;;;;;5051129;28;20060;-34
2021/12/17 14:15:43;;;;;;;15.52;9.10;;;;;;;;;;5032796;28;20449;-35
2021/12/17 14:18:10;;;;;;;14.95;9.82;;;;;;;;;;5031310;28;20112;-33
2021/12/17 14:20:43;;;;;;;12.27;9.05;;;;;;;;;;5035524;28;20042;-34
2021/12/17 14:23:10;;;;;;;11.20;8.20;;;;;;;;;;5035310;28;20100;-36
2021/12/17 14:25:44;;;;;;;11.93;7.22;;;;;;;;;;5035161;28;20507;-35
2021/12/17 14:28:14;;;;;;;10.23;6.90;;;;;;;;;;5035534;28;20041;-34
2021/12/17 14:30:42;;;;;;;12.50;7.57;;;;;;;;;;5034977;28;20085;-36
2021/12/17 14:33:08;;;;;;;10.27;7.43;;;;;;;;;;5017486;28;20128;-36
2021/12/17 14:35:42;;;;;;;10.95;7.43;;;;;;;;;;5035058;28;20065;-36
2021/12/17 14:38:08;;;;;;;11.25;7.93;;;;;;;;;;5035194;28;20092;-35
2021/12/17 14:40:42;;;;;;;8.25;6.40;;;;;;;;;;5038092;28;20052;-34
2021/12/17 14:43:25;;;;;;;9.07;7.25;;;;;;;;;;5050607;28;20043;-35
2021/12/17 14:46:00;;;;;;;11.32;6.80;;;;;;;;;;5051881;28;20131;-35
2021/12/17 14:48:38;;;;;;;8.55;6.43;;;;;;;;;;5020883;28;20046;-34
2021/12/17 15:02:24;;;;;;;8.05;6.25;;;;;;;;;;5051645;28;20308;-35
2021/12/17 15:04:49;;;;;;;9.55;6.28;;;;;;;;;;5032971;28;20049;-34
2021/12/17 15:07:26;;;;;;;7.10;4.97;;;;;;;;;;5036600;28;20473;-33
2021/12/17 15:09:52;;;;;;;6.85;4.80;;;;;;;;;;5018413;28;20548;-30
2021/12/17 15:15:10;;;;;;;4.25;3.30;;;;;;;;;;5045615;28;20051;-34
2021/12/17 15:17:37;;;;;;;5.85;4.05;;;;;;;;;;5032509;28;20042;-32
2021/12/17 15:20:04;;;;;;;4.53;3.30;;;;;;;;;;5052974;28;20040;-33
2021/12/17 15:22:30;;;;;;;6.05;4.03;;;;;;;;;;5034587;28;20041;-37
2021/12/17 15:24:56;;;;;;;4.90;4.40;;;;;;;;;;5034322;28;20447;-36
2021/12/17 15:27:23;;;;;;;6.03;5.22;;;;;;;;;;5051795;28;20524;-30
2021/12/17 15:29:49;;;;;;;3.70;3.20;;;;;;;;;;5018844;28;20471;-33
2021/12/17 15:32:15;;;;;;;4.90;3.70;;;;;;;;;;5032691;28;20044;-33
2021/12/17 15:34:41;;;;;;;4.35;3.95;;;;;;;;;;5052593;28;20036;-31
2021/12/17 15:37:07;;;;;;;5.28;3.83;;;;;;;;;;5054073;28;20044;-31
2021/12/17 15:39:33;;;;;;;5.28;3.63;;;;;;;;;;5054365;28;20481;-28
2021/12/17 15:41:59;;;;;;;4.90;4.30;;;;;;;;;;5054374;28;20094;-30
2021/12/17 15:44:25;;;;;;;6.25;4.60;;;;;;;;;;5054164;28;20055;-31
2021/12/17 15:46:51;;;;;;;6.57;5.43;;;;;;;;;;5054323;28;20041;-30
2021/12/17 15:49:33;;;;;;;6.80;5.60;;;;;;;;;;5054201;28;20490;-31
2021/12/17 15:52:01;;;;;;;7.10;5.35;;;;;;;;;;5054284;28;20566;-29
2021/12/17 15:54:27;;;;;;;7.28;5.53;;;;;;;;;;5054496;28;20076;-30
2021/12/17 15:56:52;;;;;;;8.77;6.07;;;;;;;;;;5054183;28;20391;-29
2021/12/17 15:59:25;;;;;;;7.95;6.45;;;;;;;;;;5036145;28;20041;-31
2021/12/17 16:01:58;;;;;;;7.00;6.00;;;;;;;;;;5053744;28;20052;-30
2021/12/17 16:04:24;;;;;;;8.55;6.50;;;;;;;;;;5053579;28;20132;-32
2021/12/17 16:06:54;;;;;;;9.63;8.05;;;;;;;;;;5053918;28;20521;-31
2021/12/17 16:11:57;;;;;;;14.05;9.98;;;;;;;;;;5056847;28;20041;-32
2021/12/17 16:21:59;;;;;;;11.40;9.10;;;;;;;;;;5053557;28;20041;-30
2021/12/17 16:24:26;;;;;;;13.20;9.38;;;;;;;;;;5057953;28;20098;-31
2021/12/17 16:26:54;;;;;;;9.68;8.25;;;;;;;;;;5057233;28;20041;-32
2021/12/17 16:29:20;;;;;;;13.45;10.07;;;;;;;;;;5054730;28;20046;-31
2021/12/17 16:31:47;;;;;;;11.75;8.88;;;;;;;;;;5051581;28;20517;-32
2021/12/17 16:34:14;;;;;;;15.80;10.65;;;;;;;;;;5051001;28;20086;-31
2021/12/17 16:36:46;;;;;;;15.20;10.10;;;;;;;;;;5056096;28;20541;-31
2021/12/17 16:39:14;;;;;;;15.23;11.32;;;;;;;;;;5031634;28;20045;-31
2021/12/17 16:41:40;;;;;;;14.80;11.30;;;;;;;;;;5040164;28;20049;-31
2021/12/17 16:44:09;;;;;;;15.93;10.77;;;;;;;;;;5044101;28;20076;-31
2021/12/17 16:49:04;;;;;;;16.70;11.13;;;;;;;;;;5046588;28;20076;-31
2021/12/17 16:51:30;;;;;;;18.13;12.07;;;;;;;;;;5046566;28;20454;-33
2021/12/17 16:53:57;;;;;;;16.70;11.57;;;;;;;;;;5047299;28;20083;-31
2021/12/17 16:56:23;;;;;;;15.43;11.10;;;;;;;;;;5048989;28;20091;-31
2021/12/17 16:58:49;;;;;;;18.25;12.50;;;;;;;;;;5050753;28;20095;-32
2021/12/17 17:06:28;;;;;;;14.77;10.88;;;;;;;;;;5069278;28;20122;-29
2021/12/17 17:09:00;;;;;;;14.77;10.57;;;;;;;;;;5071633;28;20045;-30
2021/12/17 17:11:29;;;;;;;14.82;11.07;;;;;;;;;;5071782;28;20222;-29
2021/12/17 17:13:57;;;;;;;18.05;11.48;;;;;;;;;;5070509;28;20049;-30
2021/12/17 17:16:23;;;;;;;18.85;11.85;;;;;;;;;;5068073;28;20102;-29
2021/12/17 17:18:49;;;;;;;21.63;13.00;;;;;;;;;;5068061;28;20079;-29
2021/12/17 17:21:15;;;;;;;22.33;11.77;;;;;;;;;;5071315;28;20079;-29
2021/12/17 17:23:42;;;;;;;14.93;9.55;;;;;;;;;;5071335;28;20036;-29
2021/12/17 17:26:09;;;;;;;19.50;10.52;;;;;;;;;;5070969;28;20048;-29
2021/12/17 17:28:36;;;;;;;19.02;12.25;;;;;;;;;;5053002;28;20032;-30
2021/12/17 17:31:02;;;;;;;15.18;10.38;;;;;;;;;;5071060;28;20059;-31
2021/12/17 17:33:28;;;;;;;13.93;9.73;;;;;;;;;;5071576;28;20120;-31
2021/12/17 17:36:03;;;;;;;16.50;10.73;;;;;;;;;;5071145;28;20049;-32
2021/12/17 17:38:29;;;;;;;14.15;10.88;;;;;;;;;;5067917;28;20036;-31
2021/12/17 17:40:55;;;;;;;14.98;11.38;;;;;;;;;;5067170;28;20040;-31
2021/12/17 17:43:21;;;;;;;16.95;11.25;;;;;;;;;;5066296;28;20068;-31
2021/12/17 17:45:47;;;;;;;17.02;11.18;;;;;;;;;;5066128;28;20493;-30
2021/12/17 17:48:14;;;;;;;16.63;11.80;;;;;;;;;;5066250;28;20119;-30
2021/12/17 17:50:41;;;;;;;18.95;11.20;;;;;;;;;;5067101;28;20032;-30
2021/12/17 17:53:17;;;;;;;16.38;10.45;;;;;;;;;;5069217;28;20098;-30
2021/12/17 17:55:43;;;;;;;16.42;11.00;;;;;;;;;;5071493;28;20068;-31
2021/12/17 17:58:18;;;;;;;16.45;10.00;;;;;;;;;;5070270;28;20047;-30
2021/12/17 18:00:45;;;;;;;15.45;10.32;;;;;;;;;;5071461;28;20123;-31
2021/12/17 18:03:12;;;;;;;14.30;10.13;;;;;;;;;;5071624;28;20052;-30